createdAt,value
2022-10-31T00:01:16.662Z,100569.69
2022-10-31T00:03:44.729Z,100569.41
2022-10-31T00:06:12.080Z,100577.59
2022-10-31T00:08:39.312Z,100574.78
2022-10-31T00:11:10.429Z,100574.25
2022-10-31T00:13:38.431Z,100570.53
2022-10-31T00:16:06.321Z,100560.03
2022-10-31T00:18:33.454Z,100570.41
2022-10-31T00:21:04.771Z,100555.28
2022-10-31T00:23:32.205Z,100568.81
2022-10-31T00:26:04.270Z,100572.88
2022-10-31T00:28:32.954Z,100572.50
2022-10-31T00:31:05.492Z,100584.72
2022-10-31T00:33:38.684Z,100569.06
2022-10-31T00:36:07.840Z,100573.31
2022-10-31T00:38:35.025Z,100567.81
2022-10-31T00:41:02.389Z,100567.09
2022-10-31T00:43:29.573Z,100560.84
2022-10-31T00:45:57.026Z,100572.47
2022-10-31T00:48:25.533Z,100574.38
2022-10-31T00:50:54.090Z,100566.78
2022-10-31T00:53:21.283Z,100578.69
2022-10-31T00:55:49.076Z,100582.56
2022-10-31T00:58:16.255Z,100582.63
2022-10-31T01:00:46.816Z,100585.19
2022-10-31T01:03:16.717Z,100580.69
2022-10-31T01:05:44.321Z,100583.75
2022-10-31T01:08:11.499Z,100574.31
2022-10-31T01:10:38.835Z,100576.44
2022-10-31T01:13:06.009Z,100578.84
2022-10-31T01:15:33.346Z,100579.25
2022-10-31T01:18:00.764Z,100582.22
2022-10-31T01:20:31.184Z,100593.41
2022-10-31T01:22:58.326Z,100585.59
2022-10-31T01:25:25.751Z,100584.69
2022-10-31T01:27:55.556Z,100593.72
2022-10-31T01:30:22.939Z,100585.13
2022-10-31T01:32:50.373Z,100593.34
2022-10-31T01:35:17.756Z,100589.41
2022-10-31T01:37:44.957Z,100587.94
2022-10-31T01:40:12.319Z,100588.94
2022-10-31T01:42:39.466Z,100593.22
2022-10-31T01:45:11.022Z,100596.31
2022-10-31T01:47:46.472Z,100583.75
2022-10-31T01:50:22.929Z,100589.56
2022-10-31T01:52:51.833Z,100590.00
2022-10-31T01:55:30.310Z,100583.63
2022-10-31T01:58:05.457Z,100574.81
2022-10-31T02:00:33.034Z,100577.94
2022-10-31T02:03:00.942Z,100580.06
2022-10-31T02:05:31.341Z,100585.72
2022-10-31T02:08:08.217Z,100603.72
2022-10-31T02:10:37.937Z,100604.84
2022-10-31T02:13:09.263Z,100577.38
2022-10-31T02:15:46.866Z,100585.56
2022-10-31T02:18:14.499Z,100589.97
2022-10-31T02:21:08.261Z,100594.50
2022-10-31T02:23:57.419Z,100595.91
2022-10-31T02:26:36.721Z,100585.59
2022-10-31T02:29:31.705Z,100583.16
2022-10-31T02:32:08.268Z,100587.16
2022-10-31T02:34:58.500Z,100593.81
2022-10-31T02:37:41.018Z,100596.78
2022-10-31T02:40:26.555Z,100606.84
2022-10-31T02:43:41.353Z,100602.03
2022-10-31T02:46:25.459Z,100606.84
2022-10-31T02:48:57.534Z,100597.50
2022-10-31T02:51:25.380Z,100609.81
2022-10-31T02:53:52.737Z,100605.44
2022-10-31T02:56:20.902Z,100611.22
2022-10-31T02:58:59.677Z,100603.47
2022-10-31T03:01:32.941Z,100618.88
2022-10-31T03:04:39.165Z,100620.41
2022-10-31T03:07:31.972Z,100614.19
2022-10-31T03:10:17.723Z,100621.94
2022-10-31T03:12:57.199Z,100617.53
2022-10-31T03:15:31.244Z,100623.75
2022-10-31T03:18:19.772Z,100618.94
2022-10-31T03:20:51.966Z,100614.13
2022-10-31T03:23:22.917Z,100635.22
2022-10-31T03:25:54.894Z,100627.22
2022-10-31T03:28:32.832Z,100633.00
2022-10-31T03:31:04.861Z,100642.03
2022-10-31T03:33:40.753Z,100637.09
2022-10-31T03:36:11.784Z,100646.72
2022-10-31T03:38:41.696Z,100643.06
2022-10-31T03:41:14.859Z,100634.47
2022-10-31T03:43:48.036Z,100629.97
2022-10-31T03:46:15.531Z,100630.16
2022-10-31T03:48:44.072Z,100632.41
2022-10-31T03:51:34.467Z,100633.91
2022-10-31T03:54:08.585Z,100640.19
2022-10-31T03:56:46.309Z,100620.97
2022-10-31T03:59:33.565Z,100632.66
2022-10-31T04:02:11.724Z,100623.72
2022-10-31T04:04:39.893Z,100634.94
2022-10-31T04:07:09.965Z,100622.56
2022-10-31T04:09:40.845Z,100644.22
2022-10-31T04:12:11.420Z,100634.50
2022-10-31T04:15:10.763Z,100631.13
2022-10-31T04:17:43.509Z,100630.03
2022-10-31T04:20:11.814Z,100619.53
2022-10-31T04:22:39.258Z,100632.22
2022-10-31T04:25:07.045Z,100635.25
2022-10-31T04:27:34.369Z,100622.78
2022-10-31T04:30:01.593Z,100631.34
2022-10-31T04:32:32.041Z,100629.28
2022-10-31T04:34:59.261Z,100621.63
2022-10-31T04:37:26.613Z,100617.72
2022-10-31T04:39:53.757Z,100613.47
2022-10-31T04:42:39.455Z,100617.00
2022-10-31T04:45:07.989Z,100606.25
2022-10-31T04:47:36.742Z,100624.31
2022-10-31T04:50:04.615Z,100627.09
2022-10-31T04:52:33.967Z,100631.13
2022-10-31T04:55:01.391Z,100624.06
2022-10-31T04:57:49.484Z,100615.66
2022-10-31T05:00:20.654Z,100618.94
2022-10-31T05:02:58.157Z,100608.72
2022-10-31T05:05:30.988Z,100618.34
2022-10-31T05:08:00.642Z,100613.47
2022-10-31T05:10:30.734Z,100608.69
2022-10-31T05:13:02.437Z,100606.13
2022-10-31T05:15:48.357Z,100597.97
2022-10-31T05:18:34.429Z,100608.41
2022-10-31T05:21:20.161Z,100594.13
2022-10-31T05:23:55.991Z,100608.13
2022-10-31T05:26:24.957Z,100604.94
2022-10-31T05:28:54.647Z,100605.50
2022-10-31T05:31:21.826Z,100610.75
2022-10-31T05:33:50.870Z,100609.53
2022-10-31T05:36:49.937Z,100610.13
2022-10-31T05:39:19.019Z,100601.84
2022-10-31T05:41:51.765Z,100608.66
2022-10-31T05:44:26.400Z,100608.19
2022-10-31T05:47:13.428Z,100613.03
2022-10-31T05:50:11.227Z,100611.97
2022-10-31T05:52:56.288Z,100617.84
2022-10-31T05:55:32.718Z,100629.63
2022-10-31T05:58:15.526Z,100628.53
2022-10-31T06:00:52.169Z,100630.63
2022-10-31T06:03:19.547Z,100632.91
2022-10-31T06:05:52.301Z,100633.03
2022-10-31T06:08:24.497Z,100649.75
2022-10-31T06:10:54.110Z,100662.19
2022-10-31T06:13:30.758Z,100659.31
2022-10-31T06:16:06.623Z,100641.81
2022-10-31T06:18:37.376Z,100649.22
2022-10-31T06:21:04.913Z,100651.25
2022-10-31T06:23:32.117Z,100647.25
2022-10-31T06:26:19.578Z,100651.69
2022-10-31T06:28:46.883Z,100652.94
2022-10-31T06:31:27.272Z,100656.19
2022-10-31T06:33:54.812Z,100653.13
2022-10-31T06:36:22.267Z,100641.31
2022-10-31T06:38:49.526Z,100642.56
2022-10-31T06:41:21.277Z,100646.22
2022-10-31T06:43:49.557Z,100657.09
2022-10-31T06:46:28.099Z,100653.06
2022-10-31T06:49:13.871Z,100652.03
2022-10-31T06:51:50.776Z,100658.72
2022-10-31T06:54:18.676Z,100665.56
2022-10-31T06:56:49.338Z,100664.34
2022-10-31T06:59:17.378Z,100661.78
2022-10-31T07:02:06.728Z,100664.78
2022-10-31T07:04:34.481Z,100660.81
2022-10-31T07:07:02.164Z,100664.59
2022-10-31T07:09:30.434Z,100680.53
2022-10-31T07:12:02.059Z,100678.09
2022-10-31T07:14:30.748Z,100671.44
2022-10-31T07:16:58.118Z,100677.28
2022-10-31T07:19:32.647Z,100672.56
2022-10-31T07:22:00.040Z,100676.13
2022-10-31T07:24:30.295Z,100674.72
2022-10-31T07:27:16.486Z,100683.50
2022-10-31T07:29:45.886Z,100689.75
2022-10-31T07:32:13.265Z,100676.44
2022-10-31T07:34:47.599Z,100693.00
2022-10-31T07:37:40.469Z,100688.19
2022-10-31T07:40:09.533Z,100686.19
2022-10-31T07:42:42.735Z,100687.31
2022-10-31T07:45:30.125Z,100695.53
2022-10-31T07:48:29.513Z,100693.19
2022-10-31T07:51:15.381Z,100699.16
2022-10-31T07:54:08.770Z,100695.69
2022-10-31T07:56:35.996Z,100703.22
2022-10-31T07:59:03.791Z,100695.69
2022-10-31T08:01:30.959Z,100690.75
2022-10-31T08:04:24.392Z,100688.19
2022-10-31T08:07:10.108Z,100691.31
2022-10-31T08:09:40.283Z,100696.09
2022-10-31T08:12:20.252Z,100694.84
2022-10-31T08:14:47.694Z,100695.53
2022-10-31T08:17:17.538Z,100697.13
2022-10-31T08:19:54.234Z,100702.16
2022-10-31T08:22:25.832Z,100694.72
2022-10-31T08:24:53.228Z,100699.22
2022-10-31T08:27:21.429Z,100702.63
2022-10-31T08:29:48.875Z,100696.97
2022-10-31T08:32:16.215Z,100703.50
2022-10-31T08:35:09.478Z,100698.09
2022-10-31T08:37:36.734Z,100698.56
2022-10-31T08:40:08.741Z,100702.09
2022-10-31T08:42:36.249Z,100701.06
2022-10-31T08:45:04.085Z,100715.66
2022-10-31T08:47:33.154Z,100724.75
2022-10-31T08:50:00.703Z,100720.00
2022-10-31T08:52:50.998Z,100718.09
2022-10-31T08:55:15.575Z,100719.28
2022-10-31T08:58:08.930Z,100710.09
2022-10-31T09:00:45.828Z,100716.22
2022-10-31T09:03:26.743Z,100716.31
2022-10-31T09:05:59.620Z,100715.72
2022-10-31T09:08:31.303Z,100712.38
2022-10-31T09:10:59.159Z,100704.09
2022-10-31T09:13:53.783Z,100695.38
2022-10-31T09:16:59.398Z,100700.56
2022-10-31T09:19:40.932Z,100697.53
2022-10-31T09:22:08.390Z,100699.16
2022-10-31T09:24:35.545Z,100702.16
2022-10-31T09:27:03.069Z,100701.63
2022-10-31T09:29:30.379Z,100712.19
2022-10-31T09:32:00.578Z,100710.53
2022-10-31T09:34:32.513Z,100702.09
2022-10-31T09:37:04.084Z,100705.16
2022-10-31T09:39:31.435Z,100695.91
2022-10-31T09:42:44.233Z,100699.94
2022-10-31T09:45:31.051Z,100693.78
2022-10-31T09:48:14.922Z,100701.78
2022-10-31T09:51:06.759Z,100706.16
2022-10-31T09:54:06.477Z,100712.47
2022-10-31T09:56:34.216Z,100718.13
2022-10-31T09:59:04.421Z,100718.00
2022-10-31T10:01:45.111Z,100726.13
2022-10-31T10:04:20.875Z,100727.13
2022-10-31T10:07:06.455Z,100726.16
2022-10-31T10:09:52.679Z,100710.38
2022-10-31T10:13:15.494Z,100726.78
2022-10-31T10:15:58.255Z,100720.47
2022-10-31T10:18:44.178Z,100725.44
2022-10-31T10:21:14.494Z,100724.63
2022-10-31T10:24:15.716Z,100723.66
2022-10-31T10:26:51.854Z,100718.78
2022-10-31T10:29:32.534Z,100714.25
2022-10-31T10:32:07.026Z,100711.97
2022-10-31T10:34:45.357Z,100717.72
2022-10-31T10:37:37.101Z,100714.03
2022-10-31T10:40:24.720Z,100709.75
2022-10-31T10:43:15.946Z,100707.91
2022-10-31T10:46:06.574Z,100699.69
2022-10-31T10:49:08.884Z,100701.78
2022-10-31T10:52:02.815Z,100711.38
2022-10-31T10:55:09.039Z,100713.09
2022-10-31T10:57:43.991Z,100714.09
2022-10-31T11:00:40.420Z,100711.06
2022-10-31T11:03:08.042Z,100701.44
2022-10-31T11:05:51.093Z,100711.19
2022-10-31T11:08:33.477Z,100708.28
2022-10-31T11:11:28.933Z,100696.41
2022-10-31T11:14:03.986Z,100690.41
2022-10-31T11:16:41.377Z,100698.50
2022-10-31T11:19:17.104Z,100701.72
2022-10-31T11:21:52.842Z,100702.91
2022-10-31T11:24:27.438Z,100703.59
2022-10-31T11:27:25.085Z,100693.16
2022-10-31T11:29:56.802Z,100703.50
2022-10-31T11:32:29.344Z,100713.72
2022-10-31T11:35:01.590Z,100707.38
2022-10-31T11:37:38.356Z,100693.38
2022-10-31T11:40:07.919Z,100705.53
2022-10-31T11:42:43.669Z,100697.63
2022-10-31T11:45:35.036Z,100700.66
2022-10-31T11:48:04.410Z,100700.19
2022-10-31T11:50:42.987Z,100706.59
2022-10-31T11:53:17.890Z,100704.50
2022-10-31T11:55:46.640Z,100705.81
2022-10-31T11:58:27.088Z,100704.53
2022-10-31T12:00:56.925Z,100706.84
2022-10-31T12:03:24.462Z,100707.22
2022-10-31T12:05:59.766Z,100702.56
2022-10-31T12:08:32.422Z,100707.75
2022-10-31T12:11:30.556Z,100708.75
2022-10-31T12:14:25.756Z,100704.66
2022-10-31T12:17:11.787Z,100694.53
2022-10-31T12:20:04.288Z,100697.50
2022-10-31T12:22:56.261Z,100690.63
2022-10-31T12:25:35.866Z,100704.44
2022-10-31T12:28:12.167Z,100704.75
2022-10-31T12:31:01.046Z,100706.16
2022-10-31T12:33:38.856Z,100700.63
2022-10-31T12:36:31.345Z,100699.88
2022-10-31T12:38:58.462Z,100707.03
2022-10-31T12:41:28.748Z,100703.59
2022-10-31T12:44:24.385Z,100699.72
2022-10-31T12:47:37.424Z,100699.47
2022-10-31T12:50:22.723Z,100706.31
2022-10-31T12:53:27.667Z,100701.66
2022-10-31T12:56:11.358Z,100696.09
2022-10-31T12:58:48.587Z,100696.78
2022-10-31T13:01:23.692Z,100694.19
2022-10-31T13:04:11.237Z,100685.63
2022-10-31T13:06:47.178Z,100694.94
2022-10-31T13:09:29.764Z,100694.88
2022-10-31T13:12:03.431Z,100682.44
2022-10-31T13:14:42.930Z,100680.59
2022-10-31T13:17:22.796Z,100678.34
2022-10-31T13:19:53.232Z,100675.81
2022-10-31T13:22:25.429Z,100682.69
2022-10-31T13:25:03.133Z,100687.94
2022-10-31T13:28:00.246Z,100682.06
2022-10-31T13:30:32.500Z,100676.34
2022-10-31T13:33:21.646Z,100691.47
2022-10-31T13:36:22.111Z,100687.44
2022-10-31T13:39:16.735Z,100678.72
2022-10-31T13:42:00.712Z,100688.44
2022-10-31T13:44:31.333Z,100688.06
2022-10-31T13:47:01.898Z,100691.25
2022-10-31T13:49:31.981Z,100688.16
2022-10-31T13:52:11.593Z,100701.13
2022-10-31T13:54:41.748Z,100681.94
2022-10-31T13:57:34.894Z,100699.53
2022-10-31T14:00:24.422Z,100695.84
2022-10-31T14:02:58.383Z,100701.31
2022-10-31T14:05:34.359Z,100696.63
2022-10-31T14:08:05.221Z,100687.97
2022-10-31T14:10:39.164Z,100696.38
2022-10-31T14:13:19.217Z,100694.69
2022-10-31T14:16:16.386Z,100697.72
2022-10-31T14:18:48.025Z,100695.22
2022-10-31T14:21:24.616Z,100702.16
2022-10-31T14:23:55.100Z,100693.63
2022-10-31T14:26:27.267Z,100707.41
2022-10-31T14:28:57.375Z,100697.31
2022-10-31T14:31:40.560Z,100694.22
2022-10-31T14:34:24.042Z,100701.06
2022-10-31T14:37:22.241Z,100699.38
2022-10-31T14:40:08.040Z,100689.72
2022-10-31T14:42:46.160Z,100691.22
2022-10-31T14:45:25.859Z,100693.63
2022-10-31T14:47:52.980Z,100699.66
2022-10-31T14:50:37.472Z,100688.88
2022-10-31T14:53:07.101Z,100692.88
2022-10-31T14:55:34.741Z,100689.72
2022-10-31T14:58:06.724Z,100696.34
2022-10-31T15:00:36.527Z,100688.59
2022-10-31T15:03:17.263Z,100695.03
2022-10-31T15:05:52.102Z,100692.34
2022-10-31T15:08:36.319Z,100683.28
2022-10-31T15:11:10.916Z,100691.50
2022-10-31T15:13:52.961Z,100694.63
2022-10-31T15:16:26.757Z,100690.34
2022-10-31T15:18:55.823Z,100692.31
2022-10-31T15:21:25.570Z,100697.31
2022-10-31T15:23:55.160Z,100693.84
2022-10-31T15:26:26.887Z,100698.00
2022-10-31T15:29:06.370Z,100702.00
2022-10-31T15:31:33.812Z,100697.59
2022-10-31T15:34:06.684Z,100702.00
2022-10-31T15:36:37.295Z,100704.56
2022-10-31T15:39:05.925Z,100704.38
2022-10-31T15:41:39.759Z,100706.28
2022-10-31T15:44:25.469Z,100713.78
2022-10-31T15:46:58.703Z,100711.69
2022-10-31T15:49:35.147Z,100717.34
2022-10-31T15:52:12.389Z,100719.03
2022-10-31T15:54:47.905Z,100715.94
2022-10-31T15:57:15.587Z,100714.56
2022-10-31T15:59:50.468Z,100713.13
2022-10-31T16:02:26.731Z,100721.06
2022-10-31T16:05:02.392Z,100718.97
2022-10-31T16:07:30.560Z,100722.22
2022-10-31T16:10:03.048Z,100721.38
2022-10-31T16:12:36.505Z,100724.50
2022-10-31T16:15:05.739Z,100723.75
2022-10-31T16:17:33.387Z,100718.50
2022-10-31T16:20:06.010Z,100708.31
2022-10-31T16:22:38.560Z,100716.00
2022-10-31T16:25:20.771Z,100717.94
2022-10-31T16:27:54.666Z,100716.13
2022-10-31T16:30:36.160Z,100715.41
2022-10-31T16:33:04.074Z,100713.41
2022-10-31T16:35:36.686Z,100712.56
2022-10-31T16:38:05.636Z,100708.31
2022-10-31T16:40:33.905Z,100696.94
2022-10-31T16:43:02.475Z,100710.00
2022-10-31T16:45:32.219Z,100710.00
2022-10-31T16:48:11.141Z,100713.72
2022-10-31T16:50:38.914Z,100708.88
2022-10-31T16:53:13.713Z,100714.28
2022-10-31T16:55:53.860Z,100717.38
2022-10-31T16:58:30.759Z,100722.09
2022-10-31T17:00:58.720Z,100705.50
2022-10-31T17:03:26.680Z,100720.22
2022-10-31T17:05:56.474Z,100717.69
2022-10-31T17:08:25.025Z,100719.03
2022-10-31T17:10:54.899Z,100717.59
2022-10-31T17:13:27.749Z,100703.88
2022-10-31T17:15:57.565Z,100716.34
2022-10-31T17:18:27.562Z,100716.34
2022-10-31T17:21:00.874Z,100705.88
2022-10-31T17:23:29.363Z,100708.84
2022-10-31T17:25:57.462Z,100708.28
2022-10-31T17:28:26.734Z,100707.44
2022-10-31T17:30:55.753Z,100709.59
2022-10-31T17:33:23.232Z,100702.63
2022-10-31T17:35:50.737Z,100713.13
2022-10-31T17:38:18.148Z,100715.06
2022-10-31T17:40:45.545Z,100717.63
2022-10-31T17:43:13.443Z,100704.97
2022-10-31T17:45:41.905Z,100702.72
2022-10-31T17:48:13.052Z,100706.25
2022-10-31T17:50:40.603Z,100707.25
2022-10-31T17:53:07.983Z,100713.34
2022-10-31T17:55:37.099Z,100705.72
2022-10-31T17:58:05.625Z,100719.91
2022-10-31T18:00:33.432Z,100722.75
2022-10-31T18:03:03.635Z,100728.97
2022-10-31T18:05:31.341Z,100722.41
2022-10-31T18:08:03.790Z,100713.00
2022-10-31T18:10:32.106Z,100721.94
2022-10-31T18:12:59.770Z,100719.84
2022-10-31T18:15:27.393Z,100726.66
2022-10-31T18:17:54.766Z,100725.47
2022-10-31T18:20:22.027Z,100718.97
2022-10-31T18:22:49.485Z,100716.28
2022-10-31T18:25:16.794Z,100721.59
2022-10-31T18:27:44.142Z,100723.31
2022-10-31T18:30:11.690Z,100724.44
2022-10-31T18:32:39.130Z,100737.91
2022-10-31T18:35:06.664Z,100723.56
2022-10-31T18:37:34.109Z,100721.03
2022-10-31T18:40:01.276Z,100720.75
2022-10-31T18:42:28.712Z,100725.88
2022-10-31T18:44:55.881Z,100727.28
2022-10-31T18:47:23.292Z,100725.03
2022-10-31T18:49:50.501Z,100722.31
2022-10-31T18:52:18.086Z,100724.88
2022-10-31T18:54:45.264Z,100730.00
2022-10-31T18:57:13.338Z,100731.25
2022-10-31T18:59:40.476Z,100726.69
2022-10-31T19:02:08.022Z,100734.22
2022-10-31T19:04:35.304Z,100728.13
2022-10-31T19:07:02.678Z,100719.91
2022-10-31T19:09:31.023Z,100720.19
2022-10-31T19:11:58.394Z,100725.03
2022-10-31T19:14:25.543Z,100716.50
2022-10-31T19:16:53.843Z,100721.91
2022-10-31T19:19:21.606Z,100717.44
2022-10-31T19:21:48.957Z,100703.03
2022-10-31T19:24:16.069Z,100723.59
2022-10-31T19:26:43.459Z,100728.56
2022-10-31T19:29:10.712Z,100725.88
2022-10-31T19:31:38.072Z,100721.78
2022-10-31T19:34:05.354Z,100714.19
2022-10-31T19:36:32.808Z,100710.78
2022-10-31T19:38:59.953Z,100717.16
2022-10-31T19:41:29.078Z,100719.50
2022-10-31T19:43:58.930Z,100708.31
2022-10-31T19:46:52.125Z,100718.97
2022-10-31T19:49:14.117Z,100706.66
2022-10-31T19:51:41.517Z,100711.34
2022-10-31T19:54:08.681Z,100713.78
2022-10-31T19:56:36.089Z,100716.34
2022-10-31T19:59:04.120Z,100719.22
2022-10-31T20:01:31.669Z,100705.44
2022-10-31T20:03:58.922Z,100716.09
2022-10-31T20:06:35.664Z,100707.13
2022-10-31T20:09:07.914Z,100715.09
2022-10-31T20:11:37.511Z,100703.47
2022-10-31T20:14:05.243Z,100703.88
2022-10-31T20:16:32.726Z,100703.72
2022-10-31T20:19:00.011Z,100700.28
2022-10-31T20:21:30.146Z,100707.94
2022-10-31T20:23:59.464Z,100699.31
2022-10-31T20:26:28.160Z,100705.16
2022-10-31T20:28:57.130Z,100701.75
2022-10-31T20:31:27.415Z,100695.78
2022-10-31T20:33:55.920Z,100701.75
2022-10-31T20:36:24.205Z,100700.75
2022-10-31T20:38:52.490Z,100702.72
2022-10-31T20:41:20.037Z,100693.09
2022-10-31T20:43:47.840Z,100703.16
2022-10-31T20:46:18.518Z,100704.16
2022-10-31T20:48:46.666Z,100706.28
2022-10-31T20:51:25.468Z,100702.75
2022-10-31T20:53:54.127Z,100693.81
2022-10-31T20:56:23.535Z,100694.94
2022-10-31T20:58:50.976Z,100701.03
2022-10-31T21:01:20.990Z,100697.53
2022-10-31T21:03:49.447Z,100689.44
2022-10-31T21:06:18.685Z,100693.81
2022-10-31T21:08:46.556Z,100693.44
2022-10-31T21:11:16.385Z,100691.44
2022-10-31T21:13:45.253Z,100683.56
2022-10-31T21:16:15.083Z,100678.16
2022-10-31T21:18:43.487Z,100684.72
2022-10-31T21:21:27.579Z,100691.38
2022-10-31T21:24:12.432Z,100684.16
2022-10-31T21:26:42.789Z,100676.53
2022-10-31T21:29:11.856Z,100686.91
2022-10-31T21:31:40.143Z,100681.38
2022-10-31T21:34:07.787Z,100680.78
2022-10-31T21:36:35.594Z,100683.75
2022-10-31T21:39:04.174Z,100688.44
2022-10-31T21:41:31.647Z,100675.97
2022-10-31T21:43:59.363Z,100670.59
2022-10-31T21:46:31.081Z,100687.16
2022-10-31T21:48:59.085Z,100684.31
2022-10-31T21:51:31.644Z,100682.91
2022-10-31T21:54:18.231Z,100679.78
2022-10-31T21:56:45.754Z,100677.09
2022-10-31T21:59:13.344Z,100683.03
2022-10-31T22:01:41.399Z,100673.66
2022-10-31T22:04:08.886Z,100678.34
2022-10-31T22:06:37.132Z,100687.16
2022-10-31T22:09:06.875Z,100683.88
2022-10-31T22:11:34.566Z,100682.75
2022-10-31T22:14:02.587Z,100673.97
2022-10-31T22:16:31.207Z,100675.81
2022-10-31T22:19:05.008Z,100673.66
2022-10-31T22:21:39.001Z,100669.59
2022-10-31T22:24:07.765Z,100672.13
2022-10-31T22:26:35.923Z,100672.44
2022-10-31T22:29:06.116Z,100677.72
2022-10-31T22:31:37.322Z,100680.56
2022-10-31T22:34:04.490Z,100685.97
2022-10-31T22:36:32.312Z,100679.19
2022-10-31T22:38:59.989Z,100676.06
2022-10-31T22:41:29.951Z,100682.94
2022-10-31T22:43:58.203Z,100673.06
2022-10-31T22:46:29.836Z,100672.63
2022-10-31T22:49:00.647Z,100678.28
2022-10-31T22:51:30.706Z,100677.00
2022-10-31T22:53:58.302Z,100673.91
2022-10-31T22:56:28.072Z,100669.69
2022-10-31T22:58:55.833Z,100677.78
2022-10-31T23:01:26.334Z,100671.38
2022-10-31T23:03:53.847Z,100684.88
2022-10-31T23:06:23.731Z,100677.66
2022-10-31T23:08:52.329Z,100671.19
2022-10-31T23:11:22.454Z,100665.06
2022-10-31T23:14:10.701Z,100664.91
2022-10-31T23:16:41.770Z,100669.75
2022-10-31T23:19:11.055Z,100656.28
2022-10-31T23:21:59.202Z,100663.75
2022-10-31T23:24:29.684Z,100660.91
2022-10-31T23:27:10.008Z,100655.53
2022-10-31T23:29:52.187Z,100665.75
2022-10-31T23:32:27.391Z,100657.38
2022-10-31T23:34:57.288Z,100661.19
2022-10-31T23:37:27.147Z,100662.78
2022-10-31T23:39:54.829Z,100670.16
2022-10-31T23:42:22.918Z,100673.13
2022-10-31T23:44:50.729Z,100669.75
2022-10-31T23:47:19.329Z,100671.47
2022-10-31T23:49:46.786Z,100660.22
2022-10-31T23:52:15.952Z,100658.84
2022-10-31T23:54:43.817Z,100660.81
2022-10-31T23:57:13.019Z,100670.88
2022-10-31T23:59:40.356Z,100661.09
